Terminal Aerodrome Forecast
Issued by NWS

Home | Current Version | Previous Version | Text Only | Print | Product List | Glossary On
Versions: 1 2 3 4 5 6 7 8 9 10 11 12 13 14 15 16 17
851
FTUS41 KBTV 240530
TAFMPV
TAF
KMPV 240530Z 2406/2506 VRB03KT P6SM BKN050
     FM240800 00000KT 5SM BR SCT050
      TEMPO 2408/2412 1/4SM FG VV001
     FM241400 31005KT P6SM SKC=

USA.gov is the U.S. government's official web portal to all federal, state and local government web resources and services.